Time;durP1;ratioP1;P1;durP2;ratioP2;P2;SDS_P1;SDS_P2;PMS_P1;PMS_P2;Temp;Humidity;BMP_temperature;BMP_pressure;BME280_temperature;BME280_humidity;BME280_pressure;Samples;Min_cycle;Max_cycle;Signal;HPM_P1;HPM_P2
2022/03/20 00:02:20;;;;;;;2.80;1.48;;;;;;;;;;4927666;29;20466;-63
2022/03/20 00:04:45;;;;;;;1.25;1.25;;;;;;;;;;4926952;29;20051;-62
2022/03/20 00:07:11;;;;;;;0.22;0.22;;;;;;;;;;4927892;29;20354;-59
2022/03/20 00:09:37;;;;;;;0.40;0.40;;;;;;;;;;4919347;29;20023;-60
2022/03/20 00:12:02;;;;;;;0.13;0.13;;;;;;;;;;4928154;29;20024;-60
2022/03/20 00:14:28;;;;;;;2.28;2.05;;;;;;;;;;4928758;29;20032;-63
2022/03/20 00:16:53;;;;;;;0.00;0.00;;;;;;;;;;4926326;29;20031;-60
2022/03/20 00:19:19;;;;;;;0.00;0.00;;;;;;;;;;4922931;29;20028;-62
2022/03/20 00:21:44;;;;;;;0.30;0.30;;;;;;;;;;4927916;29;20098;-60
2022/03/20 00:24:10;;;;;;;0.70;0.70;;;;;;;;;;4926794;29;20065;-64
2022/03/20 00:26:35;;;;;;;0.65;0.65;;;;;;;;;;4925548;29;20042;-59
2022/03/20 00:29:00;;;;;;;0.00;0.00;;;;;;;;;;4925908;29;20023;-61
2022/03/20 00:31:26;;;;;;;0.70;0.70;;;;;;;;;;4927092;29;20366;-61
2022/03/20 00:33:52;;;;;;;4.90;2.65;;;;;;;;;;4924576;29;20024;-59
2022/03/20 00:36:17;;;;;;;0.10;0.10;;;;;;;;;;4926112;29;20083;-62
2022/03/20 00:38:42;;;;;;;5.05;2.85;;;;;;;;;;4924633;29;20028;-61
2022/03/20 00:41:07;;;;;;;2.15;2.05;;;;;;;;;;4926647;29;20027;-62
2022/03/20 00:43:32;;;;;;;7.00;2.97;;;;;;;;;;4926378;29;20020;-61
2022/03/20 00:45:58;;;;;;;1.70;1.60;;;;;;;;;;4927511;29;20099;-61
2022/03/20 00:48:23;;;;;;;6.93;5.38;;;;;;;;;;4924104;29;20094;-60
2022/03/20 00:50:49;;;;;;;0.40;0.40;;;;;;;;;;4919810;29;20116;-62
2022/03/20 00:53:15;;;;;;;3.42;2.10;;;;;;;;;;4925793;29;20028;-63
2022/03/20 00:55:40;;;;;;;2.25;1.75;;;;;;;;;;4924666;29;20046;-63
2022/03/20 00:58:05;;;;;;;0.10;0.10;;;;;;;;;;4929744;29;20051;-62
2022/03/20 01:00:32;;;;;;;2.30;1.85;;;;;;;;;;4933302;29;20038;-62
2022/03/20 01:02:58;;;;;;;0.90;0.85;;;;;;;;;;4920306;29;20045;-60
2022/03/20 01:05:23;;;;;;;2.78;1.58;;;;;;;;;;4922881;29;20182;-61
2022/03/20 01:07:48;;;;;;;3.25;3.15;;;;;;;;;;4922994;29;20103;-62
2022/03/20 01:10:13;;;;;;;1.33;0.80;;;;;;;;;;4907785;29;20031;-62
2022/03/20 01:12:39;;;;;;;3.38;1.60;;;;;;;;;;4926776;29;20114;-61
2022/03/20 01:15:06;;;;;;;0.90;0.90;;;;;;;;;;4927551;29;20035;-62
2022/03/20 01:17:31;;;;;;;0.52;0.52;;;;;;;;;;4923560;29;20085;-63
2022/03/20 01:19:56;;;;;;;0.00;0.00;;;;;;;;;;4922164;29;20020;-62
2022/03/20 01:22:21;;;;;;;1.55;1.08;;;;;;;;;;4929471;29;20068;-61
2022/03/20 01:24:47;;;;;;;1.38;1.27;;;;;;;;;;4924641;29;20034;-63
2022/03/20 01:27:13;;;;;;;0.47;0.47;;;;;;;;;;4928145;29;20015;-63
2022/03/20 01:29:38;;;;;;;0.00;0.00;;;;;;;;;;4927958;29;20098;-63
2022/03/20 01:32:03;;;;;;;0.10;0.10;;;;;;;;;;4924449;29;20124;-61
2022/03/20 01:34:28;;;;;;;0.00;0.00;;;;;;;;;;4922275;29;20031;-62
2022/03/20 01:36:54;;;;;;;0.80;0.80;;;;;;;;;;4926775;29;20083;-62
2022/03/20 01:39:20;;;;;;;0.00;0.00;;;;;;;;;;4927001;29;20052;-62
2022/03/20 01:41:46;;;;;;;0.00;0.00;;;;;;;;;;4927169;29;20038;-62
2022/03/20 01:44:12;;;;;;;0.00;0.00;;;;;;;;;;4927878;29;20032;-63
2022/03/20 01:46:37;;;;;;;0.10;0.10;;;;;;;;;;4922658;29;20549;-60
2022/03/20 01:49:03;;;;;;;0.65;0.65;;;;;;;;;;4907270;29;20470;-60
2022/03/20 01:54:13;;;;;;;0.00;0.00;;;;;;;;;;4925052;29;20137;-61
2022/03/20 01:56:46;;;;;;;0.00;0.00;;;;;;;;;;4925955;29;20408;-62
2022/03/20 01:59:11;;;;;;;1.67;1.67;;;;;;;;;;4924670;29;20111;-62
2022/03/20 02:01:36;;;;;;;0.00;0.00;;;;;;;;;;4926204;29;20155;-62
2022/03/20 02:04:01;;;;;;;2.75;2.65;;;;;;;;;;4921195;29;20478;-64
2022/03/20 02:06:27;;;;;;;3.05;2.92;;;;;;;;;;4924145;29;20052;-64
2022/03/20 02:08:55;;;;;;;0.38;0.38;;;;;;;;;;4924542;29;20035;-63
2022/03/20 02:11:22;;;;;;;0.30;0.30;;;;;;;;;;4908404;29;20031;-62
2022/03/20 02:13:48;;;;;;;0.10;0.10;;;;;;;;;;4923759;29;20032;-62
2022/03/20 02:16:13;;;;;;;0.45;0.45;;;;;;;;;;4927358;29;20103;-62
2022/03/20 02:18:39;;;;;;;1.13;1.13;;;;;;;;;;4923204;29;20023;-60
2022/03/20 02:21:04;;;;;;;3.40;1.52;;;;;;;;;;4925319;29;20071;-60
2022/03/20 02:23:34;;;;;;;0.47;0.47;;;;;;;;;;4909118;29;20023;-59
2022/03/20 02:26:00;;;;;;;4.32;3.92;;;;;;;;;;4926433;29;20020;-59
2022/03/20 02:28:26;;;;;;;3.08;2.88;;;;;;;;;;4927363;29;20032;-59
2022/03/20 02:30:51;;;;;;;2.63;2.53;;;;;;;;;;4925317;29;20034;-61
2022/03/20 02:33:17;;;;;;;1.20;1.20;;;;;;;;;;4923126;29;20020;-59
2022/03/20 02:35:42;;;;;;;6.57;5.03;;;;;;;;;;4920861;29;20450;-59
2022/03/20 02:38:11;;;;;;;6.53;5.90;;;;;;;;;;4928362;29;20102;-59
2022/03/20 02:40:37;;;;;;;3.35;3.10;;;;;;;;;;4924053;29;20056;-61
2022/03/20 02:43:06;;;;;;;0.10;0.10;;;;;;;;;;4930194;29;20441;-59
2022/03/20 02:45:31;;;;;;;6.30;4.38;;;;;;;;;;4910115;29;20023;-59
2022/03/20 02:47:58;;;;;;;7.13;2.88;;;;;;;;;;4926970;29;20118;-58
2022/03/20 02:50:24;;;;;;;1.27;1.27;;;;;;;;;;4930846;29;20094;-59
2022/03/20 02:52:58;;;;;;;0.00;0.00;;;;;;;;;;4931070;29;20536;-61
2022/03/20 02:55:27;;;;;;;5.25;2.65;;;;;;;;;;4930145;29;20043;-59
2022/03/20 02:57:52;;;;;;;;;;;;;;;;;;4929363;29;20024;-59
2022/03/20 03:00:21;;;;;;;3.25;3.05;;;;;;;;;;4926981;29;19918;-62
2022/03/20 03:02:46;;;;;;;4.03;3.75;;;;;;;;;;4926277;29;20027;-63
2022/03/20 03:05:14;;;;;;;3.60;3.40;;;;;;;;;;4927859;29;20473;-61
2022/03/20 03:13:08;;;;;;;4.72;4.43;;;;;;;;;;4927756;29;20039;-62
2022/03/20 03:15:33;;;;;;;10.63;5.05;;;;;;;;;;4921927;29;20024;-61
2022/03/20 03:18:00;;;;;;;0.13;0.13;;;;;;;;;;4926631;29;20050;-62
2022/03/20 03:20:26;;;;;;;3.42;3.22;;;;;;;;;;4927981;29;20043;-61
2022/03/20 03:22:51;;;;;;;0.90;0.90;;;;;;;;;;4927381;29;20032;-62
2022/03/20 03:25:17;;;;;;;0.08;0.08;;;;;;;;;;4926965;29;20369;-63
2022/03/20 03:27:42;;;;;;;3.13;2.10;;;;;;;;;;4923119;29;20051;-61
2022/03/20 03:30:07;;;;;;;3.70;3.60;;;;;;;;;;4924644;29;20036;-60
2022/03/20 03:32:33;;;;;;;2.92;0.93;;;;;;;;;;4927674;29;20086;-60
2022/03/20 03:37:42;;;;;;;1.27;1.20;;;;;;;;;;4925836;29;20091;-60
2022/03/20 03:40:07;;;;;;;4.50;4.10;;;;;;;;;;4925232;29;20024;-61
2022/03/20 03:42:33;;;;;;;2.35;2.05;;;;;;;;;;4927209;29;20059;-61
2022/03/20 03:44:58;;;;;;;9.25;5.22;;;;;;;;;;4924558;29;20031;-62
2022/03/20 03:47:24;;;;;;;2.47;2.38;;;;;;;;;;4919405;29;20016;-62
2022/03/20 03:49:49;;;;;;;2.63;2.53;;;;;;;;;;4925318;29;20024;-62
2022/03/20 03:52:15;;;;;;;9.40;8.50;;;;;;;;;;4927122;29;20040;-61
2022/03/20 03:54:40;;;;;;;8.52;3.40;;;;;;;;;;4928309;29;20049;-63
2022/03/20 03:57:06;;;;;;;1.35;1.02;;;;;;;;;;4926745;29;20035;-61
2022/03/20 03:59:31;;;;;;;0.10;0.10;;;;;;;;;;4925165;29;20043;-62
2022/03/20 04:01:56;;;;;;;6.57;5.90;;;;;;;;;;4928294;29;20023;-61
2022/03/20 04:04:21;;;;;;;3.33;3.08;;;;;;;;;;4912596;29;20028;-61
2022/03/20 04:06:46;;;;;;;0.00;0.00;;;;;;;;;;4931192;29;20048;-61
2022/03/20 04:09:12;;;;;;;1.45;1.45;;;;;;;;;;4921023;29;20390;-61
2022/03/20 04:11:38;;;;;;;2.15;2.08;;;;;;;;;;4924949;29;20024;-60
2022/03/20 04:14:03;;;;;;;1.13;1.13;;;;;;;;;;4925557;29;20035;-60
2022/03/20 04:16:28;;;;;;;4.57;4.15;;;;;;;;;;4919528;29;20050;-61
2022/03/20 04:18:53;;;;;;;5.85;4.95;;;;;;;;;;4928366;29;20031;-63
2022/03/20 04:21:18;;;;;;;0.00;0.00;;;;;;;;;;4926313;29;20469;-63
2022/03/20 04:23:48;;;;;;;4.28;4.07;;;;;;;;;;4929429;29;20054;-63
2022/03/20 04:26:17;;;;;;;0.90;0.90;;;;;;;;;;4925442;29;20157;-59
2022/03/20 04:28:44;;;;;;;0.52;0.52;;;;;;;;;;4921166;29;20027;-60
2022/03/20 04:31:09;;;;;;;1.65;1.55;;;;;;;;;;4926645;29;20079;-59
2022/03/20 04:33:35;;;;;;;5.80;5.10;;;;;;;;;;4928532;29;20039;-60
2022/03/20 04:36:01;;;;;;;0.98;0.98;;;;;;;;;;4925527;29;20059;-60
2022/03/20 04:38:26;;;;;;;15.60;1.48;;;;;;;;;;4926630;29;20031;-60
2022/03/20 04:40:52;;;;;;;0.47;0.47;;;;;;;;;;4923558;29;20028;-58
2022/03/20 04:43:18;;;;;;;0.00;0.00;;;;;;;;;;4928968;29;20031;-59
2022/03/20 04:45:44;;;;;;;2.83;2.63;;;;;;;;;;4922440;29;20735;-59
2022/03/20 04:59:04;;;;;;;6.22;3.83;;;;;;;;;;4925248;29;20047;-60
2022/03/20 05:01:29;;;;;;;7.93;7.00;;;;;;;;;;4927830;29;20035;-58
2022/03/20 05:03:55;;;;;;;12.90;6.32;;;;;;;;;;4925133;29;20032;-59
2022/03/20 05:06:20;;;;;;;5.25;4.82;;;;;;;;;;4924446;29;20044;-60
2022/03/20 05:08:45;;;;;;;6.75;5.72;;;;;;;;;;4923397;29;20060;-59
2022/03/20 05:13:54;;;;;;;2.90;2.80;;;;;;;;;;4926174;29;20083;-59
2022/03/20 05:16:20;;;;;;;22.40;20.85;;;;;;;;;;4926621;29;20032;-58
2022/03/20 05:18:45;;;;;;;11.50;5.65;;;;;;;;;;4923087;29;20044;-60
2022/03/20 05:21:10;;;;;;;2.92;2.83;;;;;;;;;;4926685;29;20038;-60
2022/03/20 05:23:36;;;;;;;1.45;1.45;;;;;;;;;;4922715;29;20023;-60
2022/03/20 05:26:01;;;;;;;2.88;2.55;;;;;;;;;;4924118;29;20019;-59
2022/03/20 05:28:26;;;;;;;2.58;2.45;;;;;;;;;;4925560;29;20020;-57
2022/03/20 05:30:51;;;;;;;5.65;5.03;;;;;;;;;;4926491;29;20027;-55
2022/03/20 05:33:17;;;;;;;4.78;4.45;;;;;;;;;;4925032;29;20446;-60
2022/03/20 05:35:44;;;;;;;2.50;2.28;;;;;;;;;;4923949;29;20131;-59
2022/03/20 05:38:09;;;;;;;8.32;3.35;;;;;;;;;;4926025;29;20103;-60
2022/03/20 05:40:36;;;;;;;2.78;2.67;;;;;;;;;;4927464;29;20150;-59
2022/03/20 05:43:02;;;;;;;2.75;1.90;;;;;;;;;;4924614;29;20020;-59
2022/03/20 05:45:27;;;;;;;6.75;4.80;;;;;;;;;;4930044;29;20104;-60
2022/03/20 05:47:52;;;;;;;5.03;4.68;;;;;;;;;;4924561;29;20036;-57
2022/03/20 05:50:18;;;;;;;11.55;6.07;;;;;;;;;;4926943;29;20024;-59
2022/03/20 05:52:43;;;;;;;8.63;7.65;;;;;;;;;;4924884;29;20040;-60
2022/03/20 05:55:09;;;;;;;7.13;5.43;;;;;;;;;;4920410;29;20020;-59
2022/03/20 06:00:21;;;;;;;3.50;3.22;;;;;;;;;;4927877;29;20508;-59
2022/03/20 06:02:47;;;;;;;3.45;3.25;;;;;;;;;;4921658;29;20055;-59
2022/03/20 06:05:12;;;;;;;3.78;3.55;;;;;;;;;;4927594;29;20075;-58
2022/03/20 06:07:42;;;;;;;2.25;1.60;;;;;;;;;;4926296;29;20494;-59
2022/03/20 06:10:11;;;;;;;2.05;2.05;;;;;;;;;;4927535;29;20083;-57
2022/03/20 06:12:40;;;;;;;11.18;8.75;;;;;;;;;;4924915;29;20354;-58
2022/03/20 06:15:08;;;;;;;2.35;2.28;;;;;;;;;;4926787;29;20046;-58
2022/03/20 06:17:35;;;;;;;3.65;3.45;;;;;;;;;;4924183;29;20100;-60
2022/03/20 06:20:00;;;;;;;3.90;3.67;;;;;;;;;;4924129;29;20024;-60
2022/03/20 06:22:26;;;;;;;10.52;5.65;;;;;;;;;;4917138;29;20020;-59
2022/03/20 06:24:51;;;;;;;6.70;4.18;;;;;;;;;;4923596;29;20020;-59
2022/03/20 06:27:16;;;;;;;3.35;2.00;;;;;;;;;;4924869;29;20067;-58
2022/03/20 06:29:43;;;;;;;3.97;3.63;;;;;;;;;;4921265;29;20028;-58
2022/03/20 06:32:08;;;;;;;2.08;1.02;;;;;;;;;;4921571;29;20487;-58
2022/03/20 06:34:33;;;;;;;1.95;1.05;;;;;;;;;;4925929;29;20055;-60
2022/03/20 06:36:59;;;;;;;0.75;0.75;;;;;;;;;;4921404;29;20095;-58
2022/03/20 06:39:24;;;;;;;4.97;2.45;;;;;;;;;;4923823;29;20024;-60
2022/03/20 06:41:50;;;;;;;0.00;0.00;;;;;;;;;;4904948;29;20031;-59
2022/03/20 06:44:18;;;;;;;0.10;0.10;;;;;;;;;;4926029;29;20031;-59
2022/03/20 06:46:43;;;;;;;2.25;2.17;;;;;;;;;;4922394;29;20420;-60
2022/03/20 06:49:10;;;;;;;0.63;0.63;;;;;;;;;;4922702;29;20082;-59
2022/03/20 06:51:35;;;;;;;0.68;0.68;;;;;;;;;;4920199;29;20090;-60
2022/03/20 06:54:01;;;;;;;0.75;0.75;;;;;;;;;;4921334;29;20458;-60
2022/03/20 06:56:28;;;;;;;1.88;1.85;;;;;;;;;;4925457;29;20028;-59
2022/03/20 06:58:53;;;;;;;4.97;4.68;;;;;;;;;;4925068;29;20390;-59
2022/03/20 07:01:18;;;;;;;3.38;3.22;;;;;;;;;;4919239;29;20038;-60
2022/03/20 07:03:44;;;;;;;2.05;1.75;;;;;;;;;;4922344;29;20458;-59
2022/03/20 07:06:10;;;;;;;3.33;3.03;;;;;;;;;;4926490;29;20046;-64
2022/03/20 07:08:35;;;;;;;1.60;1.60;;;;;;;;;;4927303;29;20044;-63
2022/03/20 07:11:00;;;;;;;0.00;0.00;;;;;;;;;;4922672;29;20028;-63
2022/03/20 07:16:14;;;;;;;1.60;1.50;;;;;;;;;;4925045;29;20031;-63
2022/03/20 07:18:39;;;;;;;5.72;4.47;;;;;;;;;;4924165;29;20032;-61
2022/03/20 07:21:05;;;;;;;5.78;4.28;;;;;;;;;;4926467;29;20034;-60
2022/03/20 07:23:30;;;;;;;1.27;1.27;;;;;;;;;;4928440;29;20093;-60
2022/03/20 07:31:23;;;;;;;6.28;3.38;;;;;;;;;;4920812;29;20445;-61
2022/03/20 07:33:49;;;;;;;1.25;1.15;;;;;;;;;;4920428;29;20036;-61
2022/03/20 07:36:15;;;;;;;6.20;5.68;;;;;;;;;;4921842;29;20039;-61
2022/03/20 07:38:40;;;;;;;6.70;4.78;;;;;;;;;;4921187;29;20047;-62
2022/03/20 07:41:06;;;;;;;5.32;3.25;;;;;;;;;;4919724;29;20067;-60
2022/03/20 07:43:31;;;;;;;5.07;4.68;;;;;;;;;;4919285;29;20024;-61
2022/03/20 07:45:57;;;;;;;9.60;7.50;;;;;;;;;;4922798;29;20027;-61
2022/03/20 07:48:23;;;;;;;1.48;1.35;;;;;;;;;;4922511;29;20025;-61
2022/03/20 07:50:50;;;;;;;5.35;3.63;;;;;;;;;;4920495;29;20634;-62
2022/03/20 07:53:16;;;;;;;12.80;9.50;;;;;;;;;;4920837;29;20028;-62
2022/03/20 07:55:42;;;;;;;5.15;4.65;;;;;;;;;;4922603;29;20061;-61
2022/03/20 07:58:07;;;;;;;1.50;1.48;;;;;;;;;;4922766;29;20052;-61
2022/03/20 08:00:32;;;;;;;3.38;3.03;;;;;;;;;;4923851;29;20114;-61
2022/03/20 08:02:59;;;;;;;7.95;5.45;;;;;;;;;;4921607;29;20039;-61
2022/03/20 08:05:25;;;;;;;1.83;1.58;;;;;;;;;;4922449;29;20516;-60
2022/03/20 08:07:50;;;;;;;3.63;3.38;;;;;;;;;;4928359;29;20055;-60
2022/03/20 08:10:16;;;;;;;6.35;5.75;;;;;;;;;;4924629;29;20020;-61
2022/03/20 08:12:41;;;;;;;12.18;11.00;;;;;;;;;;4925950;29;20397;-61
2022/03/20 08:15:07;;;;;;;8.85;6.57;;;;;;;;;;4927489;29;20043;-61
2022/03/20 08:17:42;;;;;;;2.88;2.45;;;;;;;;;;4921617;29;20089;-62
2022/03/20 08:20:08;;;;;;;3.60;3.33;;;;;;;;;;4924870;29;20484;-62
2022/03/20 08:22:33;;;;;;;6.00;4.82;;;;;;;;;;4929948;29;20027;-61
2022/03/20 08:24:58;;;;;;;4.68;2.75;;;;;;;;;;4923042;29;20038;-61
2022/03/20 08:27:24;;;;;;;5.18;4.72;;;;;;;;;;4930057;29;20027;-61
2022/03/20 08:29:50;;;;;;;2.25;2.20;;;;;;;;;;4927097;29;20028;-61
2022/03/20 08:32:15;;;;;;;1.73;1.73;;;;;;;;;;4930305;29;20506;-62
2022/03/20 08:34:40;;;;;;;15.30;9.13;;;;;;;;;;4927242;29;20028;-61
2022/03/20 08:37:06;;;;;;;4.68;4.35;;;;;;;;;;4924836;29;20046;-62
2022/03/20 08:39:31;;;;;;;2.03;1.92;;;;;;;;;;4927145;29;20023;-62
2022/03/20 08:41:56;;;;;;;2.17;1.88;;;;;;;;;;4928936;29;20094;-61
2022/03/20 08:44:25;;;;;;;0.65;0.65;;;;;;;;;;4924259;29;20418;-61
2022/03/20 08:46:51;;;;;;;8.88;4.82;;;;;;;;;;4925811;29;20024;-61
2022/03/20 08:49:16;;;;;;;3.83;3.50;;;;;;;;;;4923593;29;20401;-61
2022/03/20 08:51:43;;;;;;;7.82;5.10;;;;;;;;;;4930160;29;20031;-59
2022/03/20 08:54:09;;;;;;;12.13;5.18;;;;;;;;;;4914439;29;20032;-61
2022/03/20 08:56:34;;;;;;;11.90;5.32;;;;;;;;;;4917058;29;20038;-63
2022/03/20 08:58:59;;;;;;;3.53;3.28;;;;;;;;;;4920989;29;20390;-61
2022/03/20 09:01:24;;;;;;;3.88;3.60;;;;;;;;;;4925690;29;20279;-62
2022/03/20 09:03:50;;;;;;;4.07;0.70;;;;;;;;;;4917295;29;20036;-63
2022/03/20 09:06:19;;;;;;;3.67;3.45;;;;;;;;;;4918554;29;20047;-68
2022/03/20 09:08:44;;;;;;;1.27;1.25;;;;;;;;;;4919461;29;20123;-63
2022/03/20 09:11:09;;;;;;;2.60;2.47;;;;;;;;;;4916855;29;20111;-63
2022/03/20 09:13:35;;;;;;;8.65;6.82;;;;;;;;;;4922685;29;20473;-64
2022/03/20 09:18:59;;;;;;;3.40;2.88;;;;;;;;;;4924904;29;20067;-61
2022/03/20 09:21:24;;;;;;;2.03;1.58;;;;;;;;;;4927431;29;20020;-61
2022/03/20 09:23:50;;;;;;;7.95;3.63;;;;;;;;;;4928114;29;20762;-62
2022/03/20 09:26:15;;;;;;;3.47;3.30;;;;;;;;;;4921902;29;20160;-65
2022/03/20 09:28:40;;;;;;;4.28;3.97;;;;;;;;;;4923331;29;20434;-63
2022/03/20 09:31:08;;;;;;;4.93;3.22;;;;;;;;;;4896692;29;20033;-56
2022/03/20 09:33:33;;;;;;;0.10;0.10;;;;;;;;;;4923883;29;20058;-57
2022/03/20 09:36:00;;;;;;;7.25;3.40;;;;;;;;;;4922800;29;20454;-58
2022/03/20 09:38:26;;;;;;;4.07;3.17;;;;;;;;;;4919603;29;20035;-58
2022/03/20 09:40:51;;;;;;;5.10;2.85;;;;;;;;;;4921418;29;20111;-59
2022/03/20 09:43:17;;;;;;;6.72;4.18;;;;;;;;;;4920122;29;20079;-59
2022/03/20 09:45:43;;;;;;;10.95;7.90;;;;;;;;;;4920193;29;20156;-58
2022/03/20 09:48:08;;;;;;;9.02;8.32;;;;;;;;;;4910435;29;20427;-58
2022/03/20 09:50:33;;;;;;;9.55;5.75;;;;;;;;;;4917881;29;20031;-58
2022/03/20 09:52:59;;;;;;;14.30;9.88;;;;;;;;;;4915887;29;20027;-55
2022/03/20 09:55:24;;;;;;;12.25;7.03;;;;;;;;;;4922754;29;20034;-55
2022/03/20 09:57:54;;;;;;;1.48;1.48;;;;;;;;;;4924373;29;20054;-54
2022/03/20 10:00:20;;;;;;;11.77;7.88;;;;;;;;;;4924437;29;20080;-57
2022/03/20 10:02:46;;;;;;;7.95;5.63;;;;;;;;;;4924179;29;20032;-57
2022/03/20 10:05:18;;;;;;;7.32;6.57;;;;;;;;;;4925162;29;20089;-55
2022/03/20 10:07:43;;;;;;;3.58;3.28;;;;;;;;;;4917011;29;20655;-58
2022/03/20 10:10:08;;;;;;;8.15;6.18;;;;;;;;;;4917239;29;20111;-57
2022/03/20 10:12:35;;;;;;;9.45;7.25;;;;;;;;;;4919335;29;20059;-58
2022/03/20 10:15:00;;;;;;;5.60;2.65;;;;;;;;;;4922898;29;20032;-57
2022/03/20 10:17:25;;;;;;;11.40;7.35;;;;;;;;;;4925723;29;20488;-58
2022/03/20 10:19:50;;;;;;;8.23;7.65;;;;;;;;;;4917158;29;20032;-56
2022/03/20 10:22:17;;;;;;;4.05;3.08;;;;;;;;;;4917048;29;20028;-58
2022/03/20 10:24:50;;;;;;;5.55;5.03;;;;;;;;;;4917397;29;20374;-57
2022/03/20 10:27:16;;;;;;;10.10;7.25;;;;;;;;;;4917660;29;20568;-57
2022/03/20 10:29:52;;;;;;;3.15;3.05;;;;;;;;;;4917570;29;20068;-57
2022/03/20 10:32:18;;;;;;;1.05;1.00;;;;;;;;;;4917579;29;20322;-56
2022/03/20 10:34:52;;;;;;;9.23;7.25;;;;;;;;;;4918184;29;20082;-57
2022/03/20 10:37:18;;;;;;;2.30;2.20;;;;;;;;;;4917972;29;20031;-58
2022/03/20 10:39:43;;;;;;;6.47;5.97;;;;;;;;;;4916073;29;20032;-57
2022/03/20 10:42:13;;;;;;;3.03;2.83;;;;;;;;;;4915617;29;21637;-58
2022/03/20 10:44:39;;;;;;;2.28;2.15;;;;;;;;;;4917589;29;20116;-56
2022/03/20 10:47:10;;;;;;;3.95;3.60;;;;;;;;;;4916998;29;20571;-58
2022/03/20 10:49:35;;;;;;;7.00;4.32;;;;;;;;;;4918988;29;20036;-59
2022/03/20 10:52:01;;;;;;;2.00;1.83;;;;;;;;;;4918275;29;20074;-59
2022/03/20 10:54:37;;;;;;;5.10;1.55;;;;;;;;;;4923867;29;20031;-60
2022/03/20 10:57:05;;;;;;;4.68;4.28;;;;;;;;;;4919883;29;20070;-59
2022/03/20 10:59:30;;;;;;;0.00;0.00;;;;;;;;;;4921598;29;20129;-59
2022/03/20 11:01:57;;;;;;;4.20;3.63;;;;;;;;;;4921496;29;20106;-59
2022/03/20 11:04:25;;;;;;;1.67;1.58;;;;;;;;;;4922064;29;20028;-60
2022/03/20 11:06:54;;;;;;;3.80;3.38;;;;;;;;;;4922351;29;20391;-59
2022/03/20 11:09:19;;;;;;;6.18;4.15;;;;;;;;;;4922105;29;20032;-59
2022/03/20 11:11:52;;;;;;;8.95;6.25;;;;;;;;;;4919878;29;21270;-59
2022/03/20 11:14:19;;;;;;;3.47;3.25;;;;;;;;;;4924377;29;20031;-58
2022/03/20 11:16:46;;;;;;;13.18;2.90;;;;;;;;;;4929474;29;20046;-59
2022/03/20 11:19:13;;;;;;;2.33;2.22;;;;;;;;;;4927926;29;20389;-58
2022/03/20 11:21:43;;;;;;;6.82;5.43;;;;;;;;;;4927076;29;20024;-58
2022/03/20 11:24:09;;;;;;;8.45;7.68;;;;;;;;;;4929126;29;20055;-59
2022/03/20 11:26:35;;;;;;;6.75;6.22;;;;;;;;;;4929209;29;20570;-59
2022/03/20 11:29:01;;;;;;;14.82;7.03;;;;;;;;;;4926812;29;20024;-58
2022/03/20 11:31:27;;;;;;;8.52;5.63;;;;;;;;;;4930211;29;20027;-58
2022/03/20 11:33:52;;;;;;;6.15;5.68;;;;;;;;;;4930295;29;20082;-59
2022/03/20 11:36:18;;;;;;;7.10;2.72;;;;;;;;;;4927936;29;20028;-60
2022/03/20 11:38:43;;;;;;;5.75;5.32;;;;;;;;;;4930065;29;20082;-58
2022/03/20 11:41:19;;;;;;;4.85;4.40;;;;;;;;;;4925054;29;20473;-59
2022/03/20 11:43:47;;;;;;;1.73;1.67;;;;;;;;;;4928291;29;20580;-59
2022/03/20 11:46:30;;;;;;;3.83;3.50;;;;;;;;;;4927869;29;20019;-58
2022/03/20 11:49:14;;;;;;;3.60;3.45;;;;;;;;;;4909279;29;20024;-59
2022/03/20 11:51:51;;;;;;;8.85;6.47;;;;;;;;;;4930790;29;20052;-58
2022/03/20 11:54:17;;;;;;;6.88;6.15;;;;;;;;;;4928082;29;20072;-59
2022/03/20 11:56:42;;;;;;;3.75;3.45;;;;;;;;;;4930550;29;20031;-59
2022/03/20 11:59:28;;;;;;;1.63;1.58;;;;;;;;;;4908933;29;20059;-59
2022/03/20 12:02:02;;;;;;;1.80;1.75;;;;;;;;;;4927913;29;20040;-57
2022/03/20 12:04:33;;;;;;;8.55;7.70;;;;;;;;;;4922892;29;20023;-59
2022/03/20 12:07:13;;;;;;;2.08;1.95;;;;;;;;;;4907183;29;20032;-57
2022/03/20 12:09:44;;;;;;;3.85;3.38;;;;;;;;;;4924457;29;20549;-59
2022/03/20 12:12:28;;;;;;;9.63;4.35;;;;;;;;;;4928837;29;20084;-59
2022/03/20 12:14:56;;;;;;;10.02;6.57;;;;;;;;;;4924304;29;20477;-58
2022/03/20 12:17:22;;;;;;;5.95;5.45;;;;;;;;;;4921994;29;20422;-59
2022/03/20 12:19:53;;;;;;;9.15;6.78;;;;;;;;;;4919147;29;20084;-59
2022/03/20 12:22:18;;;;;;;5.97;5.50;;;;;;;;;;4920216;29;20039;-59
2022/03/20 12:24:47;;;;;;;6.75;5.55;;;;;;;;;;4919723;29;20032;-58
2022/03/20 12:27:24;;;;;;;7.10;0.95;;;;;;;;;;4919716;29;20043;-59
2022/03/20 12:29:50;;;;;;;2.92;2.38;;;;;;;;;;4920482;29;20044;-58
2022/03/20 12:32:15;;;;;;;6.50;5.85;;;;;;;;;;4919356;29;20027;-58
2022/03/20 12:35:04;;;;;;;5.03;4.63;;;;;;;;;;4920384;29;20050;-58
2022/03/20 12:37:39;;;;;;;4.03;3.15;;;;;;;;;;4899527;29;20035;-59
2022/03/20 12:40:09;;;;;;;6.30;3.72;;;;;;;;;;4919617;29;20035;-58
2022/03/20 12:42:34;;;;;;;;;;;;;;;;;;4920463;29;20043;-59
2022/03/20 12:45:00;;;;;;;5.13;2.63;;;;;;;;;;4918819;29;19918;-58
2022/03/20 12:47:26;;;;;;;9.07;8.27;;;;;;;;;;4919640;29;20027;-58
2022/03/20 12:49:53;;;;;;;5.65;4.20;;;;;;;;;;4919895;29;20829;-57
2022/03/20 12:52:18;;;;;;;8.88;6.85;;;;;;;;;;4914868;29;20035;-59
2022/03/20 12:54:54;;;;;;;4.28;4.07;;;;;;;;;;4917973;29;20114;-58
2022/03/20 12:57:35;;;;;;;5.43;5.03;;;;;;;;;;4917599;29;20039;-57
2022/03/20 13:00:07;;;;;;;8.88;5.03;;;;;;;;;;4920339;29;20032;-54
2022/03/20 13:02:33;;;;;;;11.98;6.63;;;;;;;;;;4923361;29;20036;-56
2022/03/20 13:05:08;;;;;;;6.25;5.75;;;;;;;;;;4923533;29;20039;-55
2022/03/20 13:07:33;;;;;;;5.80;3.70;;;;;;;;;;4923374;29;20390;-55
2022/03/20 13:09:59;;;;;;;1.00;1.00;;;;;;;;;;4923538;29;20044;-57
2022/03/20 13:12:24;;;;;;;4.63;4.32;;;;;;;;;;4922832;29;20063;-55
2022/03/20 13:14:55;;;;;;;2.58;2.45;;;;;;;;;;4925329;29;20032;-56
2022/03/20 13:17:24;;;;;;;5.40;3.58;;;;;;;;;;4924003;29;20393;-58
2022/03/20 13:19:49;;;;;;;7.65;6.90;;;;;;;;;;4927053;29;20024;-56
2022/03/20 13:22:16;;;;;;;7.13;6.55;;;;;;;;;;4921658;29;20099;-57
2022/03/20 13:24:43;;;;;;;1.50;1.35;;;;;;;;;;4926220;29;20035;-56
2022/03/20 13:27:09;;;;;;;1.45;1.35;;;;;;;;;;4919461;29;20409;-56
2022/03/20 13:29:35;;;;;;;6.43;4.50;;;;;;;;;;4924526;29;20042;-56
2022/03/20 13:32:01;;;;;;;5.15;4.85;;;;;;;;;;4925995;29;20027;-54
2022/03/20 13:34:27;;;;;;;2.03;1.95;;;;;;;;;;4920866;29;20072;-55
2022/03/20 13:36:52;;;;;;;0.17;0.17;;;;;;;;;;4922393;29;20078;-56
2022/03/20 13:39:18;;;;;;;2.90;1.10;;;;;;;;;;4927282;29;20023;-55
2022/03/20 13:41:44;;;;;;;0.88;0.88;;;;;;;;;;4922216;29;20043;-56
2022/03/20 13:44:11;;;;;;;2.70;2.50;;;;;;;;;;4926941;29;20016;-58
2022/03/20 13:46:36;;;;;;;0.25;0.25;;;;;;;;;;4922081;29;20042;-56
2022/03/20 13:49:03;;;;;;;1.38;1.27;;;;;;;;;;4922587;29;20020;-58
2022/03/20 13:51:28;;;;;;;1.70;1.70;;;;;;;;;;4920803;29;20106;-56
2022/03/20 13:54:13;;;;;;;2.97;2.88;;;;;;;;;;4923071;29;20067;-57
2022/03/20 13:56:39;;;;;;;1.00;1.00;;;;;;;;;;4923029;29;20118;-58
2022/03/20 13:59:10;;;;;;;0.82;0.82;;;;;;;;;;4919389;29;20108;-56
2022/03/20 14:01:45;;;;;;;0.52;0.22;;;;;;;;;;4912702;29;20050;-58
2022/03/20 14:04:33;;;;;;;2.88;2.72;;;;;;;;;;4915623;29;20156;-58
2022/03/20 14:07:01;;;;;;;20.38;11.75;;;;;;;;;;4917535;29;20043;-58
2022/03/20 14:09:30;;;;;;;0.13;0.13;;;;;;;;;;4924325;29;20023;-55
2022/03/20 14:11:55;;;;;;;5.15;4.78;;;;;;;;;;4925650;29;20031;-58
2022/03/20 14:14:39;;;;;;;1.38;1.35;;;;;;;;;;4923139;29;20024;-58
2022/03/20 14:17:06;;;;;;;1.35;1.35;;;;;;;;;;4923176;29;20111;-58
2022/03/20 14:19:42;;;;;;;0.00;0.00;;;;;;;;;;4924581;29;20028;-56
2022/03/20 14:22:08;;;;;;;1.95;1.85;;;;;;;;;;4922211;29;20035;-59
2022/03/20 14:24:57;;;;;;;1.83;1.73;;;;;;;;;;4922677;29;20136;-58
2022/03/20 14:27:26;;;;;;;1.45;1.35;;;;;;;;;;4923187;29;20026;-57
2022/03/20 14:41:22;;;;;;;0.00;0.00;;;;;;;;;;4921707;29;20175;-56
2022/03/20 14:44:07;;;;;;;0.00;0.00;;;;;;;;;;4922010;29;20855;-58
2022/03/20 14:46:32;;;;;;;3.05;1.65;;;;;;;;;;4922478;29;20370;-57
2022/03/20 14:48:58;;;;;;;0.30;0.30;;;;;;;;;;4922259;29;20115;-55
2022/03/20 14:51:24;;;;;;;0.85;0.82;;;;;;;;;;4921539;29;20032;-56
2022/03/20 14:53:49;;;;;;;2.00;1.98;;;;;;;;;;4924493;29;20115;-58
2022/03/20 14:56:17;;;;;;;3.92;2.25;;;;;;;;;;4924155;29;20370;-57
2022/03/20 14:58:46;;;;;;;0.52;0.52;;;;;;;;;;4922944;29;20494;-57
2022/03/20 15:01:11;;;;;;;1.30;1.20;;;;;;;;;;4921112;29;20393;-56
2022/03/20 15:03:37;;;;;;;2.17;1.85;;;;;;;;;;4922110;29;20023;-56
2022/03/20 15:06:03;;;;;;;1.75;1.75;;;;;;;;;;4922679;29;20048;-56
2022/03/20 15:11:24;;;;;;;0.80;0.80;;;;;;;;;;4923247;29;20091;-56
2022/03/20 15:13:53;;;;;;;0.00;0.00;;;;;;;;;;4922834;29;20111;-57
2022/03/20 15:16:19;;;;;;;1.75;0.63;;;;;;;;;;4923881;29;20031;-59
2022/03/20 15:18:44;;;;;;;3.55;1.60;;;;;;;;;;4923766;29;20035;-58
2022/03/20 15:21:09;;;;;;;0.75;0.75;;;;;;;;;;4923026;29;20027;-58
2022/03/20 15:23:36;;;;;;;1.13;1.13;;;;;;;;;;4923352;29;20024;-58
2022/03/20 15:26:02;;;;;;;0.63;0.63;;;;;;;;;;4923931;29;20548;-56
2022/03/20 15:28:27;;;;;;;0.50;0.50;;;;;;;;;;4924027;29;20063;-58
2022/03/20 15:30:53;;;;;;;0.10;0.10;;;;;;;;;;4920377;29;20032;-58
2022/03/20 15:33:19;;;;;;;0.45;0.35;;;;;;;;;;4923204;29;20064;-57
2022/03/20 15:35:45;;;;;;;0.00;0.00;;;;;;;;;;4921287;29;20535;-56